<?xml version="1.0" encoding="UTF-8"?><gpx creator="Wikiloc - https://www.wikiloc.com" version="1.1" xmlns="http://www.topografix.com/GPX/1/1" xmlns:xsi="http://www.w3.org/2001/XMLSchema-instance" xsi:schemaLocation="http://www.topografix.com/GPX/1/1 http://www.topografix.com/GPX/1/1/gpx.xsd"><metadata><name>Wikiloc - Houyet 1</name><author><name>tine_naulaerts</name><link href="https://www.wikiloc.com/wikiloc/user.do?id=4036865"><text>tine_naulaerts on Wikiloc</text></link></author><link href="https://www.wikiloc.com/horseback-riding-trails/houyet-1-54560906"><text>Houyet 1 on Wikiloc</text></link><time>2020-08-13T00:12:53Z</time></metadata><trk><name>Houyet 1</name><cmt></cmt><desc></desc><trkseg><trkpt lat="50.177971" lon="5.053398"><ele>165.298</ele><time>2021-04-26T22:32:49Z</time></trkpt><trkpt lat="50.177627" lon="5.050715"><ele>153.615</ele><time>2021-04-26T22:33:09Z</time></trkpt><trkpt lat="50.179137" lon="5.050715"><ele>146.726</ele><time>2021-04-26T22:33:29Z</time></trkpt><trkpt lat="50.180153" lon="5.050329"><ele>138.408</ele><time>2021-04-26T22:33:49Z</time></trkpt><trkpt lat="50.180977" lon="5.048999"><ele>132.654</ele><time>2021-04-26T22:34:09Z</time></trkpt><trkpt lat="50.181746" lon="5.048141"><ele>132.473</ele><time>2021-04-26T22:34:29Z</time></trkpt><trkpt lat="50.181993" lon="5.047368"><ele>132.984</ele><time>2021-04-26T22:34:49Z</time></trkpt><trkpt lat="50.183339" lon="5.046681"><ele>131.335</ele><time>2021-04-26T22:35:09Z</time></trkpt><trkpt lat="50.184410" lon="5.047153"><ele>138.359</ele><time>2021-04-26T22:35:29Z</time></trkpt><trkpt lat="50.185810" lon="5.049728"><ele>156.048</ele><time>2021-04-26T22:35:49Z</time></trkpt><trkpt lat="50.186112" lon="5.050372"><ele>161.749</ele><time>2021-04-26T22:36:09Z</time></trkpt><trkpt lat="50.186853" lon="5.049471"><ele>169.955</ele><time>2021-04-26T22:36:29Z</time></trkpt><trkpt lat="50.187428" lon="5.048625"><ele>183.511</ele><time>2021-04-26T22:36:49Z</time></trkpt><trkpt lat="50.187373" lon="5.048153"><ele>180.821</ele><time>2021-04-26T22:37:09Z</time></trkpt><trkpt lat="50.187290" lon="5.047338"><ele>174.503</ele><time>2021-04-26T22:37:29Z</time></trkpt><trkpt lat="50.187373" lon="5.046973"><ele>172.408</ele><time>2021-04-26T22:37:49Z</time></trkpt><trkpt lat="50.188087" lon="5.046973"><ele>174.556</ele><time>2021-04-26T22:38:09Z</time></trkpt><trkpt lat="50.188581" lon="5.046608"><ele>176.985</ele><time>2021-04-26T22:38:29Z</time></trkpt><trkpt lat="50.188759" lon="5.046029"><ele>175.216</ele><time>2021-04-26T22:38:49Z</time></trkpt><trkpt lat="50.188718" lon="5.045450"><ele>177.927</ele><time>2021-04-26T22:39:09Z</time></trkpt><trkpt lat="50.188196" lon="5.045857"><ele>173.871</ele><time>2021-04-26T22:39:29Z</time></trkpt><trkpt lat="50.187963" lon="5.045364"><ele>174.530</ele><time>2021-04-26T22:39:49Z</time></trkpt><trkpt lat="50.187771" lon="5.043218"><ele>171.931</ele><time>2021-04-26T22:40:09Z</time></trkpt><trkpt lat="50.188032" lon="5.042424"><ele>168.267</ele><time>2021-04-26T22:40:29Z</time></trkpt><trkpt lat="50.188512" lon="5.041888"><ele>175.086</ele><time>2021-04-26T22:40:49Z</time></trkpt><trkpt lat="50.188663" lon="5.041330"><ele>172.160</ele><time>2021-04-26T22:41:09Z</time></trkpt><trkpt lat="50.189034" lon="5.040622"><ele>178.926</ele><time>2021-04-26T22:41:29Z</time></trkpt><trkpt lat="50.188952" lon="5.040386"><ele>177.608</ele><time>2021-04-26T22:41:49Z</time></trkpt><trkpt lat="50.188636" lon="5.039871"><ele>160.143</ele><time>2021-04-26T22:42:09Z</time></trkpt><trkpt lat="50.188869" lon="5.038970"><ele>164.972</ele><time>2021-04-26T22:42:29Z</time></trkpt><trkpt lat="50.189130" lon="5.037832"><ele>160.753</ele><time>2021-04-26T22:42:49Z</time></trkpt><trkpt lat="50.189762" lon="5.037403"><ele>185.054</ele><time>2021-04-26T22:43:09Z</time></trkpt><trkpt lat="50.189350" lon="5.036867"><ele>170.578</ele><time>2021-04-26T22:43:29Z</time></trkpt><trkpt lat="50.189212" lon="5.036459"><ele>164.687</ele><time>2021-04-26T22:43:49Z</time></trkpt><trkpt lat="50.189199" lon="5.035686"><ele>167.528</ele><time>2021-04-26T22:44:09Z</time></trkpt><trkpt lat="50.189144" lon="5.034120"><ele>174.954</ele><time>2021-04-26T22:44:29Z</time></trkpt><trkpt lat="50.188952" lon="5.032833"><ele>175.012</ele><time>2021-04-26T22:44:49Z</time></trkpt><trkpt lat="50.188622" lon="5.031652"><ele>178.032</ele><time>2021-04-26T22:45:09Z</time></trkpt><trkpt lat="50.188045" lon="5.030386"><ele>174.105</ele><time>2021-04-26T22:45:29Z</time></trkpt><trkpt lat="50.187702" lon="5.029764"><ele>180.208</ele><time>2021-04-26T22:45:49Z</time></trkpt><trkpt lat="50.187362" lon="5.029399"><ele>178.266</ele><time>2021-04-26T22:46:09Z</time></trkpt><trkpt lat="50.186593" lon="5.028627"><ele>169.395</ele><time>2021-04-26T22:46:29Z</time></trkpt><trkpt lat="50.185975" lon="5.027940"><ele>167.696</ele><time>2021-04-26T22:46:49Z</time></trkpt><trkpt lat="50.185385" lon="5.027425"><ele>160.777</ele><time>2021-04-26T22:47:09Z</time></trkpt><trkpt lat="50.185083" lon="5.027146"><ele>157.711</ele><time>2021-04-26T22:47:29Z</time></trkpt><trkpt lat="50.185250" lon="5.026494"><ele>163.890</ele><time>2021-04-26T22:47:49Z</time></trkpt><trkpt lat="50.185882" lon="5.026408"><ele>181.591</ele><time>2021-04-26T22:48:09Z</time></trkpt><trkpt lat="50.186143" lon="5.026151"><ele>190.067</ele><time>2021-04-26T22:48:29Z</time></trkpt><trkpt lat="50.186143" lon="5.025400"><ele>195.923</ele><time>2021-04-26T22:48:49Z</time></trkpt><trkpt lat="50.186156" lon="5.023876"><ele>203.783</ele><time>2021-04-26T22:49:09Z</time></trkpt><trkpt lat="50.186266" lon="5.022202"><ele>211.611</ele><time>2021-04-26T22:49:29Z</time></trkpt><trkpt lat="50.186513" lon="5.021280"><ele>216.008</ele><time>2021-04-26T22:49:49Z</time></trkpt><trkpt lat="50.187230" lon="5.023490"><ele>231.627</ele><time>2021-04-26T22:50:09Z</time></trkpt><trkpt lat="50.187395" lon="5.024885"><ele>231.776</ele><time>2021-04-26T22:50:29Z</time></trkpt><trkpt lat="50.187683" lon="5.026490"><ele>235.537</ele><time>2021-04-26T22:50:49Z</time></trkpt><trkpt lat="50.188177" lon="5.027434"><ele>238.458</ele><time>2021-04-26T22:51:09Z</time></trkpt><trkpt lat="50.188812" lon="5.028387"><ele>236.662</ele><time>2021-04-26T22:51:29Z</time></trkpt><trkpt lat="50.188743" lon="5.026799"><ele>232.181</ele><time>2021-04-26T22:51:49Z</time></trkpt><trkpt lat="50.188647" lon="5.024653"><ele>226.662</ele><time>2021-04-26T22:52:09Z</time></trkpt><trkpt lat="50.188623" lon="5.022190"><ele>218.848</ele><time>2021-04-26T22:52:29Z</time></trkpt><trkpt lat="50.188938" lon="5.021117"><ele>215.548</ele><time>2021-04-26T22:52:49Z</time></trkpt><trkpt lat="50.189246" lon="5.019456"><ele>222.861</ele><time>2021-04-26T22:53:09Z</time></trkpt><trkpt lat="50.189424" lon="5.018233"><ele>220.017</ele><time>2021-04-26T22:53:29Z</time></trkpt><trkpt lat="50.189298" lon="5.016057"><ele>208.408</ele><time>2021-04-26T22:53:49Z</time></trkpt><trkpt lat="50.189216" lon="5.014267"><ele>192.099</ele><time>2021-04-26T22:54:09Z</time></trkpt><trkpt lat="50.189490" lon="5.012594"><ele>172.678</ele><time>2021-04-26T22:54:29Z</time></trkpt><trkpt lat="50.189842" lon="5.011143"><ele>153.969</ele><time>2021-04-26T22:54:49Z</time></trkpt><trkpt lat="50.190665" lon="5.010538"><ele>145.830</ele><time>2021-04-26T22:55:09Z</time></trkpt><trkpt lat="50.190789" lon="5.009851"><ele>141.744</ele><time>2021-04-26T22:55:29Z</time></trkpt><trkpt lat="50.190663" lon="5.009264"><ele>138.593</ele><time>2021-04-26T22:55:49Z</time></trkpt><trkpt lat="50.190608" lon="5.008405"><ele>128.174</ele><time>2021-04-26T22:56:09Z</time></trkpt><trkpt lat="50.190663" lon="5.008073"><ele>124.450</ele><time>2021-04-26T22:56:29Z</time></trkpt><trkpt lat="50.191267" lon="5.007322"><ele>123.219</ele><time>2021-04-26T22:56:49Z</time></trkpt><trkpt lat="50.191408" lon="5.007631"><ele>127.209</ele><time>2021-04-26T22:57:09Z</time></trkpt><trkpt lat="50.191257" lon="5.008146"><ele>128.919</ele><time>2021-04-26T22:57:29Z</time></trkpt><trkpt lat="50.191237" lon="5.008446"><ele>129.808</ele><time>2021-04-26T22:57:49Z</time></trkpt><trkpt lat="50.191765" lon="5.008403"><ele>143.036</ele><time>2021-04-26T22:58:09Z</time></trkpt><trkpt lat="50.192702" lon="5.008285"><ele>166.235</ele><time>2021-04-26T22:58:29Z</time></trkpt><trkpt lat="50.193367" lon="5.008328"><ele>184.096</ele><time>2021-04-26T22:58:49Z</time></trkpt><trkpt lat="50.193827" lon="5.007459"><ele>186.857</ele><time>2021-04-26T22:59:09Z</time></trkpt><trkpt lat="50.194500" lon="5.006418"><ele>194.891</ele><time>2021-04-26T22:59:29Z</time></trkpt><trkpt lat="50.194718" lon="5.005667"><ele>194.430</ele><time>2021-04-26T22:59:49Z</time></trkpt><trkpt lat="50.195514" lon="5.006096"><ele>204.841</ele><time>2021-04-26T23:00:09Z</time></trkpt><trkpt lat="50.196263" lon="5.006536"><ele>204.747</ele><time>2021-04-26T23:00:29Z</time></trkpt><trkpt lat="50.196428" lon="5.005935"><ele>200.466</ele><time>2021-04-26T23:00:49Z</time></trkpt><trkpt lat="50.196503" lon="5.005270"><ele>198.129</ele><time>2021-04-26T23:01:09Z</time></trkpt><trkpt lat="50.196229" lon="5.005066"><ele>189.221</ele><time>2021-04-26T23:01:29Z</time></trkpt><trkpt lat="50.195946" lon="5.004204"><ele>186.808</ele><time>2021-04-26T23:01:49Z</time></trkpt><trkpt lat="50.195541" lon="5.003506"><ele>183.171</ele><time>2021-04-26T23:02:09Z</time></trkpt><trkpt lat="50.195308" lon="5.003120"><ele>183.430</ele><time>2021-04-26T23:02:29Z</time></trkpt><trkpt lat="50.194958" lon="5.002863"><ele>178.071</ele><time>2021-04-26T23:02:49Z</time></trkpt><trkpt lat="50.194608" lon="5.002584"><ele>160.292</ele><time>2021-04-26T23:03:09Z</time></trkpt><trkpt lat="50.194623" lon="5.002202"><ele>165.236</ele><time>2021-04-26T23:03:29Z</time></trkpt><trkpt lat="50.194794" lon="5.000893"><ele>166.815</ele><time>2021-04-26T23:03:49Z</time></trkpt><trkpt lat="50.195103" lon="4.999756"><ele>162.056</ele><time>2021-04-26T23:04:09Z</time></trkpt><trkpt lat="50.195144" lon="4.999187"><ele>154.022</ele><time>2021-04-26T23:04:29Z</time></trkpt><trkpt lat="50.194808" lon="4.999616"><ele>147.788</ele><time>2021-04-26T23:04:49Z</time></trkpt><trkpt lat="50.194363" lon="5.000365"><ele>141.124</ele><time>2021-04-26T23:05:09Z</time></trkpt><trkpt lat="50.194212" lon="5.000507"><ele>136.626</ele><time>2021-04-26T23:05:29Z</time></trkpt><trkpt lat="50.194301" lon="5.000142"><ele>136.608</ele><time>2021-04-26T23:05:49Z</time></trkpt><trkpt lat="50.194473" lon="4.999432"><ele>130.953</ele><time>2021-04-26T23:06:09Z</time></trkpt><trkpt lat="50.194638" lon="4.998809"><ele>128.242</ele><time>2021-04-26T23:06:29Z</time></trkpt><trkpt lat="50.194864" lon="4.998198"><ele>126.173</ele><time>2021-04-26T23:06:49Z</time></trkpt><trkpt lat="50.195056" lon="4.997876"><ele>124.844</ele><time>2021-04-26T23:07:09Z</time></trkpt><trkpt lat="50.195367" lon="4.997709"><ele>127.668</ele><time>2021-04-26T23:07:29Z</time></trkpt><trkpt lat="50.196167" lon="4.997803"><ele>132.167</ele><time>2021-04-26T23:07:49Z</time></trkpt><trkpt lat="50.196852" lon="4.997996"><ele>131.368</ele><time>2021-04-26T23:08:09Z</time></trkpt><trkpt lat="50.197524" lon="4.998500"><ele>130.594</ele><time>2021-04-26T23:08:29Z</time></trkpt><trkpt lat="50.198314" lon="4.998994"><ele>126.393</ele><time>2021-04-26T23:08:49Z</time></trkpt><trkpt lat="50.199203" lon="4.998994"><ele>125.465</ele><time>2021-04-26T23:09:09Z</time></trkpt><trkpt lat="50.199827" lon="4.998887"><ele>120.721</ele><time>2021-04-26T23:09:29Z</time></trkpt><trkpt lat="50.200466" lon="4.998865"><ele>123.008</ele><time>2021-04-26T23:09:49Z</time></trkpt><trkpt lat="50.201331" lon="4.998801"><ele>135.744</ele><time>2021-04-26T23:10:09Z</time></trkpt><trkpt lat="50.202833" lon="4.997921"><ele>126.243</ele><time>2021-04-26T23:10:29Z</time></trkpt><trkpt lat="50.203737" lon="5.000093"><ele>143.674</ele><time>2021-04-26T23:10:49Z</time></trkpt><trkpt lat="50.204725" lon="5.001637"><ele>137.935</ele><time>2021-04-26T23:11:09Z</time></trkpt><trkpt lat="50.204533" lon="5.002753"><ele>148.079</ele><time>2021-04-26T23:11:29Z</time></trkpt><trkpt lat="50.204835" lon="5.004212"><ele>145.128</ele><time>2021-04-26T23:11:49Z</time></trkpt><trkpt lat="50.205356" lon="5.006315"><ele>151.539</ele><time>2021-04-26T23:12:09Z</time></trkpt><trkpt lat="50.205411" lon="5.007903"><ele>155.145</ele><time>2021-04-26T23:12:29Z</time></trkpt><trkpt lat="50.205384" lon="5.008847"><ele>159.742</ele><time>2021-04-26T23:12:49Z</time></trkpt><trkpt lat="50.206262" lon="5.011293"><ele>155.222</ele><time>2021-04-26T23:13:09Z</time></trkpt><trkpt lat="50.205795" lon="5.013010"><ele>164.514</ele><time>2021-04-26T23:13:29Z</time></trkpt><trkpt lat="50.205823" lon="5.014598"><ele>158.708</ele><time>2021-04-26T23:13:49Z</time></trkpt><trkpt lat="50.205576" lon="5.015800"><ele>160.879</ele><time>2021-04-26T23:14:09Z</time></trkpt><trkpt lat="50.205466" lon="5.016915"><ele>166.828</ele><time>2021-04-26T23:14:29Z</time></trkpt><trkpt lat="50.205494" lon="5.018546"><ele>168.379</ele><time>2021-04-26T23:14:49Z</time></trkpt><trkpt lat="50.205905" lon="5.020177"><ele>168.840</ele><time>2021-04-26T23:15:09Z</time></trkpt><trkpt lat="50.207272" lon="5.021473"><ele>170.694</ele><time>2021-04-26T23:15:29Z</time></trkpt><trkpt lat="50.208041" lon="5.023833"><ele>168.563</ele><time>2021-04-26T23:15:49Z</time></trkpt><trkpt lat="50.208178" lon="5.025636"><ele>176.824</ele><time>2021-04-26T23:16:09Z</time></trkpt><trkpt lat="50.208507" lon="5.026666"><ele>175.290</ele><time>2021-04-26T23:16:29Z</time></trkpt><trkpt lat="50.208919" lon="5.027567"><ele>178.322</ele><time>2021-04-26T23:16:49Z</time></trkpt><trkpt lat="50.208809" lon="5.028211"><ele>179.962</ele><time>2021-04-26T23:17:09Z</time></trkpt><trkpt lat="50.208754" lon="5.029241"><ele>181.108</ele><time>2021-04-26T23:17:29Z</time></trkpt><trkpt lat="50.208837" lon="5.030614"><ele>175.908</ele><time>2021-04-26T23:17:49Z</time></trkpt><trkpt lat="50.207958" lon="5.030657"><ele>184.527</ele><time>2021-04-26T23:18:09Z</time></trkpt><trkpt lat="50.206833" lon="5.031000"><ele>183.326</ele><time>2021-04-26T23:18:29Z</time></trkpt><trkpt lat="50.206476" lon="5.031515"><ele>179.787</ele><time>2021-04-26T23:18:49Z</time></trkpt><trkpt lat="50.206202" lon="5.031987"><ele>184.288</ele><time>2021-04-26T23:19:09Z</time></trkpt><trkpt lat="50.206504" lon="5.032545"><ele>182.052</ele><time>2021-04-26T23:19:29Z</time></trkpt><trkpt lat="50.207739" lon="5.032803"><ele>179.191</ele><time>2021-04-26T23:19:49Z</time></trkpt><trkpt lat="50.208343" lon="5.033961"><ele>185.292</ele><time>2021-04-26T23:20:09Z</time></trkpt><trkpt lat="50.207629" lon="5.034390"><ele>188.158</ele><time>2021-04-26T23:20:29Z</time></trkpt><trkpt lat="50.206751" lon="5.034390"><ele>190.666</ele><time>2021-04-26T23:20:49Z</time></trkpt><trkpt lat="50.205488" lon="5.034691"><ele>195.929</ele><time>2021-04-26T23:21:09Z</time></trkpt><trkpt lat="50.205351" lon="5.035892"><ele>188.721</ele><time>2021-04-26T23:21:29Z</time></trkpt><trkpt lat="50.205982" lon="5.037137"><ele>188.908</ele><time>2021-04-26T23:21:49Z</time></trkpt><trkpt lat="50.206476" lon="5.038167"><ele>191.721</ele><time>2021-04-26T23:22:09Z</time></trkpt><trkpt lat="50.206010" lon="5.038854"><ele>190.650</ele><time>2021-04-26T23:22:29Z</time></trkpt><trkpt lat="50.205518" lon="5.039317"><ele>190.741</ele><time>2021-04-26T23:22:49Z</time></trkpt><trkpt lat="50.204996" lon="5.039446"><ele>191.932</ele><time>2021-04-26T23:23:09Z</time></trkpt><trkpt lat="50.204639" lon="5.039317"><ele>190.096</ele><time>2021-04-26T23:23:29Z</time></trkpt><trkpt lat="50.204529" lon="5.039394"><ele>187.025</ele><time>2021-04-26T23:23:49Z</time></trkpt><trkpt lat="50.204189" lon="5.039557"><ele>183.376</ele><time>2021-04-26T23:24:09Z</time></trkpt><trkpt lat="50.203530" lon="5.040931"><ele>196.352</ele><time>2021-04-26T23:24:29Z</time></trkpt><trkpt lat="50.204244" lon="5.042476"><ele>188.584</ele><time>2021-04-26T23:24:49Z</time></trkpt><trkpt lat="50.204957" lon="5.043119"><ele>188.207</ele><time>2021-04-26T23:25:09Z</time></trkpt><trkpt lat="50.205012" lon="5.044192"><ele>188.717</ele><time>2021-04-26T23:25:29Z</time></trkpt><trkpt lat="50.204793" lon="5.045179"><ele>195.008</ele><time>2021-04-26T23:25:49Z</time></trkpt><trkpt lat="50.205122" lon="5.046596"><ele>191.133</ele><time>2021-04-26T23:26:09Z</time></trkpt><trkpt lat="50.205506" lon="5.048141"><ele>193.582</ele><time>2021-04-26T23:26:29Z</time></trkpt><trkpt lat="50.205973" lon="5.049685"><ele>192.233</ele><time>2021-04-26T23:26:49Z</time></trkpt><trkpt lat="50.206659" lon="5.050973"><ele>191.674</ele><time>2021-04-26T23:27:09Z</time></trkpt><trkpt lat="50.206989" lon="5.051917"><ele>193.468</ele><time>2021-04-26T23:27:29Z</time></trkpt><trkpt lat="50.206879" lon="5.052518"><ele>194.657</ele><time>2021-04-26T23:27:49Z</time></trkpt><trkpt lat="50.206824" lon="5.053333"><ele>193.238</ele><time>2021-04-26T23:28:09Z</time></trkpt><trkpt lat="50.207476" lon="5.052947"><ele>188.934</ele><time>2021-04-26T23:28:29Z</time></trkpt><trkpt lat="50.207723" lon="5.053441"><ele>191.263</ele><time>2021-04-26T23:28:49Z</time></trkpt><trkpt lat="50.207723" lon="5.053784"><ele>194.244</ele><time>2021-04-26T23:29:09Z</time></trkpt><trkpt lat="50.207819" lon="5.054149"><ele>196.918</ele><time>2021-04-26T23:29:29Z</time></trkpt><trkpt lat="50.208492" lon="5.053998"><ele>209.108</ele><time>2021-04-26T23:29:49Z</time></trkpt><trkpt lat="50.209383" lon="5.053956"><ele>216.821</ele><time>2021-04-26T23:30:09Z</time></trkpt><trkpt lat="50.210742" lon="5.053526"><ele>231.570</ele><time>2021-04-26T23:30:29Z</time></trkpt><trkpt lat="50.211579" lon="5.053376"><ele>242.991</ele><time>2021-04-26T23:30:49Z</time></trkpt><trkpt lat="50.213049" lon="5.055367"><ele>255.972</ele><time>2021-04-26T23:31:09Z</time></trkpt><trkpt lat="50.213104" lon="5.057642"><ele>254.276</ele><time>2021-04-26T23:31:29Z</time></trkpt><trkpt lat="50.213104" lon="5.060603"><ele>259.155</ele><time>2021-04-26T23:31:49Z</time></trkpt><trkpt lat="50.212994" lon="5.063521"><ele>256.496</ele><time>2021-04-26T23:32:09Z</time></trkpt><trkpt lat="50.212967" lon="5.064508"><ele>247.992</ele><time>2021-04-26T23:32:29Z</time></trkpt><trkpt lat="50.211841" lon="5.065066"><ele>236.699</ele><time>2021-04-26T23:32:49Z</time></trkpt><trkpt lat="50.210689" lon="5.064895"><ele>236.207</ele><time>2021-04-26T23:33:09Z</time></trkpt><trkpt lat="50.210250" lon="5.064981"><ele>230.627</ele><time>2021-04-26T23:33:29Z</time></trkpt><trkpt lat="50.209975" lon="5.065538"><ele>224.708</ele><time>2021-04-26T23:33:49Z</time></trkpt><trkpt lat="50.210442" lon="5.066182"><ele>232.154</ele><time>2021-04-26T23:34:09Z</time></trkpt><trkpt lat="50.210634" lon="5.067470"><ele>234.163</ele><time>2021-04-26T23:34:29Z</time></trkpt><trkpt lat="50.210552" lon="5.068972"><ele>226.774</ele><time>2021-04-26T23:34:49Z</time></trkpt><trkpt lat="50.210469" lon="5.069615"><ele>225.175</ele><time>2021-04-26T23:35:09Z</time></trkpt><trkpt lat="50.211704" lon="5.069057"><ele>226.359</ele><time>2021-04-26T23:35:29Z</time></trkpt><trkpt lat="50.213214" lon="5.070045"><ele>239.428</ele><time>2021-04-26T23:35:49Z</time></trkpt><trkpt lat="50.213955" lon="5.072319"><ele>260.359</ele><time>2021-04-26T23:36:09Z</time></trkpt><trkpt lat="50.214723" lon="5.073821"><ele>269.845</ele><time>2021-04-26T23:36:29Z</time></trkpt><trkpt lat="50.215848" lon="5.075400"><ele>275.572</ele><time>2021-04-26T23:36:49Z</time></trkpt><trkpt lat="50.217604" lon="5.076302"><ele>283.713</ele><time>2021-04-26T23:37:09Z</time></trkpt><trkpt lat="50.218746" lon="5.077598"><ele>291.014</ele><time>2021-04-26T23:37:29Z</time></trkpt><trkpt lat="50.220474" lon="5.077426"><ele>295.208</ele><time>2021-04-26T23:37:49Z</time></trkpt><trkpt lat="50.221956" lon="5.078499"><ele>303.112</ele><time>2021-04-26T23:38:09Z</time></trkpt><trkpt lat="50.223191" lon="5.079400"><ele>307.911</ele><time>2021-04-26T23:38:29Z</time></trkpt><trkpt lat="50.224343" lon="5.081717"><ele>313.052</ele><time>2021-04-26T23:38:49Z</time></trkpt><trkpt lat="50.225496" lon="5.084207"><ele>315.523</ele><time>2021-04-26T23:39:09Z</time></trkpt><trkpt lat="50.226648" lon="5.086782"><ele>318.047</ele><time>2021-04-26T23:39:29Z</time></trkpt><trkpt lat="50.227811" lon="5.089039"><ele>316.846</ele><time>2021-04-26T23:39:49Z</time></trkpt><trkpt lat="50.229073" lon="5.090841"><ele>316.357</ele><time>2021-04-26T23:40:09Z</time></trkpt><trkpt lat="50.229238" lon="5.091442"><ele>315.183</ele><time>2021-04-26T23:40:29Z</time></trkpt><trkpt lat="50.229073" lon="5.093116"><ele>305.066</ele><time>2021-04-26T23:40:49Z</time></trkpt><trkpt lat="50.228634" lon="5.093845"><ele>297.429</ele><time>2021-04-26T23:41:09Z</time></trkpt><trkpt lat="50.227992" lon="5.093142"><ele>296.321</ele><time>2021-04-26T23:41:29Z</time></trkpt><trkpt lat="50.226867" lon="5.092283"><ele>298.808</ele><time>2021-04-26T23:41:49Z</time></trkpt><trkpt lat="50.225660" lon="5.091167"><ele>294.751</ele><time>2021-04-26T23:42:09Z</time></trkpt><trkpt lat="50.224755" lon="5.090610"><ele>293.240</ele><time>2021-04-26T23:42:29Z</time></trkpt><trkpt lat="50.223932" lon="5.090266"><ele>284.371</ele><time>2021-04-26T23:42:49Z</time></trkpt><trkpt lat="50.223026" lon="5.089537"><ele>277.892</ele><time>2021-04-26T23:43:09Z</time></trkpt><trkpt lat="50.221901" lon="5.086490"><ele>280.926</ele><time>2021-04-26T23:43:29Z</time></trkpt><trkpt lat="50.221792" lon="5.084945"><ele>288.495</ele><time>2021-04-26T23:43:49Z</time></trkpt><trkpt lat="50.221023" lon="5.082026"><ele>293.376</ele><time>2021-04-26T23:44:09Z</time></trkpt><trkpt lat="50.220474" lon="5.079151"><ele>299.432</ele><time>2021-04-26T23:44:29Z</time></trkpt><trkpt lat="50.220227" lon="5.077735"><ele>294.575</ele><time>2021-04-26T23:44:49Z</time></trkpt><trkpt lat="50.219295" lon="5.077735"><ele>293.728</ele><time>2021-04-26T23:45:09Z</time></trkpt><trkpt lat="50.218718" lon="5.077778"><ele>291.820</ele><time>2021-04-26T23:45:29Z</time></trkpt><trkpt lat="50.218032" lon="5.076885"><ele>287.808</ele><time>2021-04-26T23:45:49Z</time></trkpt><trkpt lat="50.217237" lon="5.076327"><ele>282.162</ele><time>2021-04-26T23:46:09Z</time></trkpt><trkpt lat="50.216496" lon="5.075898"><ele>277.621</ele><time>2021-04-26T23:46:29Z</time></trkpt><trkpt lat="50.215645" lon="5.075040"><ele>273.672</ele><time>2021-04-26T23:46:49Z</time></trkpt><trkpt lat="50.214794" lon="5.074096"><ele>270.343</ele><time>2021-04-26T23:47:09Z</time></trkpt><trkpt lat="50.213834" lon="5.072250"><ele>260.377</ele><time>2021-04-26T23:47:29Z</time></trkpt><trkpt lat="50.213351" lon="5.071109"><ele>252.786</ele><time>2021-04-26T23:47:49Z</time></trkpt><trkpt lat="50.213214" lon="5.070208"><ele>241.737</ele><time>2021-04-26T23:48:09Z</time></trkpt><trkpt lat="50.212253" lon="5.069693"><ele>224.183</ele><time>2021-04-26T23:48:29Z</time></trkpt><trkpt lat="50.211485" lon="5.069221"><ele>226.539</ele><time>2021-04-26T23:48:49Z</time></trkpt><trkpt lat="50.210853" lon="5.069821"><ele>223.501</ele><time>2021-04-26T23:49:09Z</time></trkpt><trkpt lat="50.210057" lon="5.070251"><ele>222.421</ele><time>2021-04-26T23:49:29Z</time></trkpt><trkpt lat="50.209701" lon="5.069607"><ele>220.808</ele><time>2021-04-26T23:49:49Z</time></trkpt><trkpt lat="50.209618" lon="5.068362"><ele>222.138</ele><time>2021-04-26T23:50:09Z</time></trkpt><trkpt lat="50.209097" lon="5.066989"><ele>207.757</ele><time>2021-04-26T23:50:29Z</time></trkpt><trkpt lat="50.209289" lon="5.066131"><ele>210.018</ele><time>2021-04-26T23:50:49Z</time></trkpt><trkpt lat="50.209262" lon="5.065358"><ele>205.819</ele><time>2021-04-26T23:51:09Z</time></trkpt><trkpt lat="50.208383" lon="5.063212"><ele>200.463</ele><time>2021-04-26T23:51:29Z</time></trkpt><trkpt lat="50.208740" lon="5.061024"><ele>202.522</ele><time>2021-04-26T23:51:49Z</time></trkpt><trkpt lat="50.208685" lon="5.060037"><ele>207.783</ele><time>2021-04-26T23:52:09Z</time></trkpt><trkpt lat="50.208027" lon="5.058578"><ele>201.969</ele><time>2021-04-26T23:52:29Z</time></trkpt><trkpt lat="50.207944" lon="5.056389"><ele>203.278</ele><time>2021-04-26T23:52:49Z</time></trkpt><trkpt lat="50.207692" lon="5.055076"><ele>195.833</ele><time>2021-04-26T23:53:09Z</time></trkpt><trkpt lat="50.207747" lon="5.054389"><ele>195.626</ele><time>2021-04-26T23:53:29Z</time></trkpt><trkpt lat="50.207664" lon="5.053531"><ele>191.208</ele><time>2021-04-26T23:53:49Z</time></trkpt><trkpt lat="50.207307" lon="5.053359"><ele>188.162</ele><time>2021-04-26T23:54:09Z</time></trkpt><trkpt lat="50.206978" lon="5.053230"><ele>191.061</ele><time>2021-04-26T23:54:29Z</time></trkpt><trkpt lat="50.206182" lon="5.054046"><ele>206.232</ele><time>2021-04-26T23:54:49Z</time></trkpt><trkpt lat="50.205935" lon="5.054861"><ele>212.363</ele><time>2021-04-26T23:55:09Z</time></trkpt><trkpt lat="50.205633" lon="5.056106"><ele>224.577</ele><time>2021-04-26T23:55:29Z</time></trkpt><trkpt lat="50.205496" lon="5.056621"><ele>234.056</ele><time>2021-04-26T23:55:49Z</time></trkpt><trkpt lat="50.205606" lon="5.057651"><ele>238.887</ele><time>2021-04-26T23:56:09Z</time></trkpt><trkpt lat="50.206072" lon="5.058466"><ele>238.273</ele><time>2021-04-26T23:56:29Z</time></trkpt><trkpt lat="50.205770" lon="5.059367"><ele>253.496</ele><time>2021-04-26T23:56:49Z</time></trkpt><trkpt lat="50.205468" lon="5.060054"><ele>262.731</ele><time>2021-04-26T23:57:09Z</time></trkpt><trkpt lat="50.204920" lon="5.060268"><ele>266.924</ele><time>2021-04-26T23:57:29Z</time></trkpt><trkpt lat="50.204096" lon="5.060740"><ele>270.908</ele><time>2021-04-26T23:57:49Z</time></trkpt><trkpt lat="50.203355" lon="5.061213"><ele>262.454</ele><time>2021-04-26T23:58:09Z</time></trkpt><trkpt lat="50.202833" lon="5.061384"><ele>261.063</ele><time>2021-04-26T23:58:29Z</time></trkpt><trkpt lat="50.201983" lon="5.062200"><ele>259.564</ele><time>2021-04-26T23:58:49Z</time></trkpt><trkpt lat="50.201324" lon="5.063144"><ele>262.065</ele><time>2021-04-26T23:59:09Z</time></trkpt><trkpt lat="50.200500" lon="5.064646"><ele>268.229</ele><time>2021-04-26T23:59:29Z</time></trkpt><trkpt lat="50.198681" lon="5.064757"><ele>274.458</ele><time>2021-04-26T23:59:49Z</time></trkpt><trkpt lat="50.196925" lon="5.064371"><ele>285.349</ele><time>2021-04-27T00:00:09Z</time></trkpt><trkpt lat="50.196046" lon="5.064242"><ele>288.295</ele><time>2021-04-27T00:00:29Z</time></trkpt><trkpt lat="50.195969" lon="5.064251"><ele>288.726</ele><time>2021-04-27T00:00:49Z</time></trkpt><trkpt lat="50.195338" lon="5.061762"><ele>294.647</ele><time>2021-04-27T00:01:09Z</time></trkpt><trkpt lat="50.195036" lon="5.059917"><ele>292.511</ele><time>2021-04-27T00:01:29Z</time></trkpt><trkpt lat="50.194651" lon="5.057985"><ele>288.608</ele><time>2021-04-27T00:01:49Z</time></trkpt><trkpt lat="50.194624" lon="5.057170"><ele>286.597</ele><time>2021-04-27T00:02:09Z</time></trkpt><trkpt lat="50.193883" lon="5.057470"><ele>284.016</ele><time>2021-04-27T00:02:29Z</time></trkpt><trkpt lat="50.193498" lon="5.058372"><ele>284.147</ele><time>2021-04-27T00:02:49Z</time></trkpt><trkpt lat="50.193553" lon="5.059144"><ele>285.088</ele><time>2021-04-27T00:03:09Z</time></trkpt><trkpt lat="50.193306" lon="5.061419"><ele>277.432</ele><time>2021-04-27T00:03:29Z</time></trkpt><trkpt lat="50.193279" lon="5.063006"><ele>269.841</ele><time>2021-04-27T00:03:49Z</time></trkpt><trkpt lat="50.193196" lon="5.065238"><ele>247.752</ele><time>2021-04-27T00:04:09Z</time></trkpt><trkpt lat="50.192620" lon="5.065195"><ele>235.688</ele><time>2021-04-27T00:04:29Z</time></trkpt><trkpt lat="50.191604" lon="5.064895"><ele>223.739</ele><time>2021-04-27T00:04:49Z</time></trkpt><trkpt lat="50.191357" lon="5.064766"><ele>219.901</ele><time>2021-04-27T00:05:09Z</time></trkpt><trkpt lat="50.190806" lon="5.065049"><ele>216.021</ele><time>2021-04-27T00:05:29Z</time></trkpt><trkpt lat="50.189625" lon="5.065092"><ele>205.008</ele><time>2021-04-27T00:05:49Z</time></trkpt><trkpt lat="50.188198" lon="5.065521"><ele>203.698</ele><time>2021-04-27T00:06:09Z</time></trkpt><trkpt lat="50.187429" lon="5.065950"><ele>207.517</ele><time>2021-04-27T00:06:29Z</time></trkpt><trkpt lat="50.186303" lon="5.066251"><ele>207.668</ele><time>2021-04-27T00:06:49Z</time></trkpt><trkpt lat="50.184326" lon="5.066637"><ele>199.699</ele><time>2021-04-27T00:07:09Z</time></trkpt><trkpt lat="50.183337" lon="5.066680"><ele>194.143</ele><time>2021-04-27T00:07:29Z</time></trkpt><trkpt lat="50.183090" lon="5.066740"><ele>193.982</ele><time>2021-04-27T00:07:49Z</time></trkpt><trkpt lat="50.182712" lon="5.065217"><ele>189.113</ele><time>2021-04-27T00:08:09Z</time></trkpt><trkpt lat="50.182410" lon="5.064551"><ele>189.759</ele><time>2021-04-27T00:08:29Z</time></trkpt><trkpt lat="50.181147" lon="5.062148"><ele>179.437</ele><time>2021-04-27T00:08:49Z</time></trkpt><trkpt lat="50.180529" lon="5.060646"><ele>176.149</ele><time>2021-04-27T00:09:09Z</time></trkpt><trkpt lat="50.179774" lon="5.059402"><ele>177.713</ele><time>2021-04-27T00:09:29Z</time></trkpt><trkpt lat="50.179032" lon="5.057213"><ele>175.008</ele><time>2021-04-27T00:09:49Z</time></trkpt><trkpt lat="50.178373" lon="5.054831"><ele>168.138</ele><time>2021-04-27T00:10:09Z</time></trkpt><trkpt lat="50.178153" lon="5.053715"><ele>165.777</ele><time>2021-04-27T00:10:29Z</time></trkpt></trkseg></trk></gpx>